createdAt,value
2023-01-27T00:02:33.824Z,0.50
2023-01-27T00:07:37.040Z,0.53
2023-01-27T00:13:07.116Z,0.51
2023-01-27T00:18:11.557Z,0.52
2023-01-27T00:23:34.963Z,0.54
2023-01-27T00:28:39.386Z,0.54
2023-01-27T00:33:45.886Z,0.55
2023-01-27T00:38:48.148Z,0.55
2023-01-27T00:43:53.291Z,0.55
2023-01-27T00:48:58.228Z,0.49
2023-01-27T00:54:03.068Z,0.41
2023-01-27T00:59:05.446Z,0.39
2023-01-27T01:04:08.100Z,0.38
2023-01-27T01:09:11.115Z,0.38
2023-01-27T01:14:13.831Z,0.39
2023-01-27T01:19:16.539Z,0.36
2023-01-27T01:24:19.757Z,0.34
2023-01-27T01:29:22.181Z,0.33
2023-01-27T01:34:24.633Z,0.32
2023-01-27T01:39:32.431Z,0.30
2023-01-27T01:44:34.656Z,0.28
2023-01-27T01:49:40.720Z,0.26
2023-01-27T01:54:56.885Z,0.21
2023-01-27T02:00:08.017Z,0.15
2023-01-27T02:05:40.677Z,0.12
2023-01-27T02:10:49.786Z,0.09
2023-01-27T02:15:56.102Z,0.08
2023-01-27T02:20:58.827Z,0.08
2023-01-27T02:26:17.312Z,0.06
2023-01-27T02:31:39.919Z,0.02
2023-01-27T02:36:56.507Z,-0.02
2023-01-27T02:42:19.602Z,-0.02
2023-01-27T02:47:31.045Z,0.02
2023-01-27T02:52:34.027Z,0.06
2023-01-27T02:57:36.470Z,0.13
2023-01-27T03:02:54.286Z,0.15
2023-01-27T03:07:57.023Z,0.16
2023-01-27T03:12:59.748Z,0.18
2023-01-27T03:18:11.604Z,0.16
2023-01-27T03:23:16.881Z,0.16
2023-01-27T03:28:22.773Z,0.18
2023-01-27T03:33:37.151Z,0.19
2023-01-27T03:39:14.173Z,0.22
2023-01-27T03:44:35.011Z,0.27
2023-01-27T03:49:39.384Z,0.35
2023-01-27T03:54:41.547Z,0.37
2023-01-27T03:59:48.048Z,0.40
2023-01-27T04:05:08.780Z,0.37
2023-01-27T04:10:11.862Z,0.36
2023-01-27T04:15:14.469Z,0.34
2023-01-27T04:20:38.066Z,0.33
2023-01-27T04:25:40.514Z,0.33
2023-01-27T04:30:44.060Z,0.33
2023-01-27T04:35:46.610Z,0.30
2023-01-27T04:40:48.826Z,0.22
2023-01-27T04:45:51.202Z,0.19
2023-01-27T04:50:53.910Z,0.17
2023-01-27T04:56:05.984Z,0.15
2023-01-27T05:01:07.980Z,0.13
2023-01-27T05:06:17.242Z,0.13
2023-01-27T05:11:20.200Z,0.07
2023-01-27T05:16:25.356Z,0.02
2023-01-27T05:21:28.495Z,-0.01
2023-01-27T05:26:31.238Z,-0.02
2023-01-27T05:31:33.527Z,-0.03
2023-01-27T05:36:36.122Z,-0.09
2023-01-27T05:41:38.252Z,-0.13
2023-01-27T05:46:42.462Z,-0.16
2023-01-27T05:51:48.303Z,-0.18
2023-01-27T05:56:50.328Z,-0.19
2023-01-27T06:01:52.742Z,-0.21
2023-01-27T06:06:55.424Z,-0.19
2023-01-27T06:11:57.707Z,-0.18
2023-01-27T06:17:01.106Z,-0.20
2023-01-27T06:22:12.464Z,-0.19
2023-01-27T06:27:15.325Z,-0.19
2023-01-27T06:32:17.464Z,-0.22
2023-01-27T06:37:22.586Z,-0.28
2023-01-27T06:42:25.448Z,-0.33
2023-01-27T06:47:27.748Z,-0.34
2023-01-27T06:52:30.435Z,-0.31
2023-01-27T06:57:33.019Z,-0.28
2023-01-27T07:02:38.222Z,-0.26
2023-01-27T07:07:43.481Z,-0.29
2023-01-27T07:12:45.459Z,-0.28
2023-01-27T07:17:47.963Z,-0.25
2023-01-27T07:22:53.416Z,-0.20
2023-01-27T07:27:58.431Z,-0.16
2023-01-27T07:33:10.784Z,-0.14
2023-01-27T07:38:15.664Z,-0.14
2023-01-27T07:43:18.166Z,-0.13
2023-01-27T07:48:21.742Z,-0.10
2023-01-27T07:53:23.840Z,-0.05
2023-01-27T07:58:26.971Z,0.00
2023-01-27T08:03:29.396Z,0.04
2023-01-27T08:08:32.752Z,0.05
2023-01-27T08:13:36.193Z,0.03
2023-01-27T08:18:40.320Z,0.07
2023-01-27T08:23:42.888Z,0.13
2023-01-27T08:28:45.080Z,0.19
2023-01-27T08:33:53.285Z,0.23
2023-01-27T08:39:06.687Z,0.31
2023-01-27T08:44:12.184Z,0.41
2023-01-27T08:49:15.172Z,0.48
2023-01-27T08:54:17.812Z,0.50
2023-01-27T08:59:20.439Z,0.51
2023-01-27T09:04:23.196Z,0.45
2023-01-27T09:09:25.133Z,0.40
2023-01-27T09:14:27.619Z,0.39
2023-01-27T09:19:32.883Z,0.41
2023-01-27T09:24:35.330Z,0.41
2023-01-27T09:29:37.306Z,0.43
2023-01-27T09:34:39.775Z,0.49
2023-01-27T09:39:56.231Z,0.50
2023-01-27T09:45:38.705Z,0.48
2023-01-27T09:50:53.408Z,0.49
2023-01-27T09:56:20.875Z,0.55
2023-01-27T10:01:46.917Z,0.55
2023-01-27T10:07:07.410Z,0.49
2023-01-27T10:12:24.369Z,0.39
2023-01-27T10:18:15.598Z,0.30
2023-01-27T10:23:57.834Z,0.24
2023-01-27T10:29:23.283Z,0.20
2023-01-27T10:35:02.860Z,0.16
2023-01-27T10:40:16.316Z,0.21
2023-01-27T10:45:40.436Z,0.34
2023-01-27T10:51:02.026Z,0.51
2023-01-27T10:56:25.814Z,0.64
2023-01-27T11:01:38.672Z,0.72
2023-01-27T11:06:43.949Z,0.80
2023-01-27T11:11:50.139Z,0.84
2023-01-27T11:17:02.936Z,0.87
2023-01-27T11:22:20.055Z,0.87
2023-01-27T11:28:13.761Z,0.83
2023-01-27T11:33:51.761Z,0.83
2023-01-27T11:39:07.398Z,0.80
2023-01-27T11:44:23.257Z,0.80
2023-01-27T11:49:32.614Z,0.82
2023-01-27T11:54:42.157Z,0.85
2023-01-27T11:59:46.815Z,0.89
2023-01-27T12:05:04.076Z,0.88
2023-01-27T12:10:36.244Z,0.89
2023-01-27T12:15:58.973Z,0.90
2023-01-27T12:21:08.517Z,0.92
2023-01-27T12:26:12.233Z,1.00
2023-01-27T12:31:33.553Z,1.13
2023-01-27T12:36:44.495Z,1.17
2023-01-27T12:41:47.132Z,1.20
2023-01-27T12:47:35.593Z,1.19
2023-01-27T12:52:38.063Z,1.21
2023-01-27T12:57:43.735Z,1.22
2023-01-27T13:02:47.229Z,1.22
2023-01-27T13:07:53.192Z,1.22
2023-01-27T13:13:05.474Z,1.19
2023-01-27T13:18:23.796Z,1.18
2023-01-27T13:23:35.134Z,1.15
2023-01-27T13:29:13.347Z,1.11
2023-01-27T13:34:29.831Z,1.08
2023-01-27T13:39:51.926Z,1.07
2023-01-27T13:45:01.403Z,1.07
2023-01-27T13:50:16.682Z,1.09
2023-01-27T13:55:47.958Z,1.09
2023-01-27T14:01:25.483Z,1.08
2023-01-27T14:06:28.014Z,1.02
2023-01-27T14:11:47.573Z,0.95
2023-01-27T14:17:02.838Z,0.89
2023-01-27T14:22:26.033Z,0.88
2023-01-27T14:27:40.189Z,0.87
2023-01-27T14:33:03.033Z,0.83
2023-01-27T14:38:33.037Z,0.81
2023-01-27T14:43:51.983Z,0.76
2023-01-27T14:49:32.687Z,0.73
2023-01-27T14:54:58.926Z,0.72
2023-01-27T15:00:12.817Z,0.73
2023-01-27T15:06:13.722Z,0.74
2023-01-27T15:11:51.711Z,0.69
2023-01-27T15:17:12.769Z,0.69
2023-01-27T15:22:42.992Z,0.68
2023-01-27T15:27:47.388Z,0.69
2023-01-27T15:32:49.625Z,0.68
2023-01-27T15:38:17.980Z,0.67
2023-01-27T15:43:25.532Z,0.64
2023-01-27T15:48:34.358Z,0.62
2023-01-27T15:53:42.352Z,0.62
2023-01-27T15:58:58.308Z,0.64
2023-01-27T16:04:27.665Z,0.64
2023-01-27T16:09:51.998Z,0.65
2023-01-27T16:15:22.926Z,0.67
2023-01-27T16:20:37.886Z,0.67
2023-01-27T16:25:46.565Z,0.66
2023-01-27T16:31:03.511Z,0.65
2023-01-27T16:36:27.245Z,0.63
2023-01-27T16:41:36.217Z,0.59
2023-01-27T16:46:53.376Z,0.54
2023-01-27T16:52:01.673Z,0.51
2023-01-27T16:57:06.649Z,0.49
2023-01-27T17:02:20.378Z,0.48
2023-01-27T17:07:23.411Z,0.50
2023-01-27T17:12:34.731Z,0.51
2023-01-27T17:17:39.193Z,0.51
2023-01-27T17:22:44.479Z,0.52
2023-01-27T17:27:50.252Z,0.51
2023-01-27T17:33:00.639Z,0.51
2023-01-27T17:38:24.315Z,0.48
2023-01-27T17:43:39.347Z,0.46
2023-01-27T17:48:52.582Z,0.45
2023-01-27T17:53:56.778Z,0.46
2023-01-27T17:59:11.877Z,0.46
2023-01-27T18:04:15.589Z,0.45
2023-01-27T18:09:28.510Z,0.42
2023-01-27T18:14:37.089Z,0.41
2023-01-27T18:19:51.276Z,0.43
2023-01-27T18:24:57.474Z,0.43
2023-01-27T18:30:28.485Z,0.44
2023-01-27T18:35:34.984Z,0.47
2023-01-27T18:40:45.907Z,0.50
2023-01-27T18:45:50.608Z,0.53
2023-01-27T18:50:53.205Z,0.56
2023-01-27T18:55:55.723Z,0.57
2023-01-27T19:01:01.022Z,0.57
2023-01-27T19:06:03.919Z,0.55
2023-01-27T19:11:14.248Z,0.50
2023-01-27T19:16:19.695Z,0.41
2023-01-27T19:21:22.719Z,0.32
2023-01-27T19:26:27.551Z,0.26
2023-01-27T19:31:30.238Z,0.21
2023-01-27T19:36:42.447Z,0.22
2023-01-27T19:41:48.712Z,0.22
2023-01-27T19:46:59.971Z,0.18
2023-01-27T19:52:05.799Z,0.18
2023-01-27T19:57:15.908Z,0.14
2023-01-27T20:02:21.331Z,0.10
2023-01-27T20:07:26.093Z,0.10
2023-01-27T20:12:29.103Z,0.10
2023-01-27T20:17:32.785Z,0.13
2023-01-27T20:22:36.846Z,0.14
2023-01-27T20:27:39.519Z,0.17
2023-01-27T20:32:42.419Z,0.20
2023-01-27T20:37:48.656Z,0.22
2023-01-27T20:42:52.176Z,0.23
2023-01-27T20:47:54.390Z,0.26
2023-01-27T20:52:57.296Z,0.27
2023-01-27T20:58:02.444Z,0.25
2023-01-27T21:03:05.110Z,0.21
2023-01-27T21:08:07.353Z,0.19
2023-01-27T21:13:12.172Z,0.18
2023-01-27T21:18:20.722Z,0.19
2023-01-27T21:23:28.075Z,0.22
2023-01-27T21:28:31.948Z,0.25
2023-01-27T21:33:36.279Z,0.28
2023-01-27T21:38:40.058Z,0.29
2023-01-27T21:44:01.204Z,0.28
2023-01-27T21:49:04.025Z,0.22
2023-01-27T21:54:10.484Z,0.23
2023-01-27T21:59:13.043Z,0.23
2023-01-27T22:04:18.800Z,0.20
2023-01-27T22:09:24.049Z,0.18
2023-01-27T22:14:31.648Z,0.20
2023-01-27T22:19:39.212Z,0.23
2023-01-27T22:24:42.237Z,0.25
2023-01-27T22:29:44.882Z,0.27
2023-01-27T22:34:50.815Z,0.27
2023-01-27T22:39:55.875Z,0.26
2023-01-27T22:45:01.811Z,0.25
2023-01-27T22:50:08.802Z,0.24
2023-01-27T22:55:13.228Z,0.21
2023-01-27T23:00:21.004Z,0.21
2023-01-27T23:05:26.700Z,0.25
2023-01-27T23:10:29.264Z,0.26
2023-01-27T23:15:31.586Z,0.25
2023-01-27T23:20:34.951Z,0.23
2023-01-27T23:25:45.175Z,0.22
2023-01-27T23:30:53.848Z,0.22
2023-01-27T23:35:57.620Z,0.21
2023-01-27T23:41:04.756Z,0.22
2023-01-27T23:46:11.457Z,0.23
2023-01-27T23:51:20.113Z,0.23
2023-01-27T23:56:22.694Z,0.23
